sensor_id;sensor_type;location;lat;lon;timestamp;P1;durP1;ratioP1;P2;durP2;ratioP2
10074;SDS011;5076;42.680;23.288;2022-09-09T00:02:40;7.70;;;6.27;;
10074;SDS011;5076;42.680;23.288;2022-09-09T00:06:15;6.87;;;6.20;;
10074;SDS011;5076;42.680;23.288;2022-09-09T00:09:47;7.07;;;6.43;;
10074;SDS011;5076;42.680;23.288;2022-09-09T00:13:19;7.43;;;6.73;;
10074;SDS011;5076;42.680;23.288;2022-09-09T00:16:52;7.30;;;6.63;;
10074;SDS011;5076;42.680;23.288;2022-09-09T00:20:25;7.50;;;6.80;;
10074;SDS011;5076;42.680;23.288;2022-09-09T00:23:57;7.93;;;6.33;;
10074;SDS011;5076;42.680;23.288;2022-09-09T00:27:29;11.27;;;6.07;;
10074;SDS011;5076;42.680;23.288;2022-09-09T00:30:59;8.07;;;6.23;;
10074;SDS011;5076;42.680;23.288;2022-09-09T00:34:35;6.10;;;5.60;;
10074;SDS011;5076;42.680;23.288;2022-09-09T00:38:05;7.90;;;6.83;;
10074;SDS011;5076;42.680;23.288;2022-09-09T00:41:39;8.20;;;6.60;;
10074;SDS011;5076;42.680;23.288;2022-09-09T00:45:15;7.70;;;7.00;;
10074;SDS011;5076;42.680;23.288;2022-09-09T00:49:03;7.77;;;6.97;;
10074;SDS011;5076;42.680;23.288;2022-09-09T00:52:39;7.27;;;6.57;;
10074;SDS011;5076;42.680;23.288;2022-09-09T00:56:11;10.07;;;7.50;;
10074;SDS011;5076;42.680;23.288;2022-09-09T01:03:40;9.00;;;6.77;;
10074;SDS011;5076;42.680;23.288;2022-09-09T01:07:11;7.07;;;6.20;;
10074;SDS011;5076;42.680;23.288;2022-09-09T01:10:44;8.17;;;7.27;;
10074;SDS011;5076;42.680;23.288;2022-09-09T01:14:35;7.67;;;6.97;;
10074;SDS011;5076;42.680;23.288;2022-09-09T01:18:05;11.33;;;6.13;;
10074;SDS011;5076;42.680;23.288;2022-09-09T01:21:38;8.50;;;7.47;;
10074;SDS011;5076;42.680;23.288;2022-09-09T01:25:18;7.43;;;6.63;;
10074;SDS011;5076;42.680;23.288;2022-09-09T01:28:50;7.87;;;7.03;;
10074;SDS011;5076;42.680;23.288;2022-09-09T01:32:39;9.20;;;7.13;;
10074;SDS011;5076;42.680;23.288;2022-09-09T01:36:06;7.73;;;7.03;;
10074;SDS011;5076;42.680;23.288;2022-09-09T01:39:33;7.53;;;6.83;;
10074;SDS011;5076;42.680;23.288;2022-09-09T01:43:01;8.67;;;7.23;;
10074;SDS011;5076;42.680;23.288;2022-09-09T01:46:26;7.47;;;6.77;;
10074;SDS011;5076;42.680;23.288;2022-09-09T01:49:53;8.13;;;7.07;;
10074;SDS011;5076;42.680;23.288;2022-09-09T01:53:19;7.20;;;6.53;;
10074;SDS011;5076;42.680;23.288;2022-09-09T01:56:47;9.37;;;7.13;;
10074;SDS011;5076;42.680;23.288;2022-09-09T02:00:20;7.30;;;6.70;;
10074;SDS011;5076;42.680;23.288;2022-09-09T02:03:53;6.87;;;6.17;;
10074;SDS011;5076;42.680;23.288;2022-09-09T02:07:28;7.30;;;6.60;;
10074;SDS011;5076;42.680;23.288;2022-09-09T02:11:01;7.40;;;6.70;;
10074;SDS011;5076;42.680;23.288;2022-09-09T02:14:34;7.50;;;6.50;;
10074;SDS011;5076;42.680;23.288;2022-09-09T02:18:08;8.80;;;7.07;;
10074;SDS011;5076;42.680;23.288;2022-09-09T02:21:38;8.27;;;7.23;;
10074;SDS011;5076;42.680;23.288;2022-09-09T02:25:06;9.00;;;8.10;;
10074;SDS011;5076;42.680;23.288;2022-09-09T02:28:33;8.57;;;7.77;;
10074;SDS011;5076;42.680;23.288;2022-09-09T02:32:02;9.40;;;7.90;;
10074;SDS011;5076;42.680;23.288;2022-09-09T02:35:31;9.50;;;8.43;;
10074;SDS011;5076;42.680;23.288;2022-09-09T02:38:59;8.97;;;8.07;;
10074;SDS011;5076;42.680;23.288;2022-09-09T02:42:25;8.47;;;7.60;;
10074;SDS011;5076;42.680;23.288;2022-09-09T02:45:51;8.60;;;7.73;;
10074;SDS011;5076;42.680;23.288;2022-09-09T02:49:32;8.53;;;7.63;;
10074;SDS011;5076;42.680;23.288;2022-09-09T02:53:10;9.73;;;8.10;;
10074;SDS011;5076;42.680;23.288;2022-09-09T02:56:46;9.00;;;7.83;;
10074;SDS011;5076;42.680;23.288;2022-09-09T03:00:13;9.13;;;7.10;;
10074;SDS011;5076;42.680;23.288;2022-09-09T03:03:39;8.70;;;7.80;;
10074;SDS011;5076;42.680;23.288;2022-09-09T03:07:06;9.70;;;7.67;;
10074;SDS011;5076;42.680;23.288;2022-09-09T03:10:32;10.43;;;8.30;;
10074;SDS011;5076;42.680;23.288;2022-09-09T03:13:57;9.07;;;8.37;;
10074;SDS011;5076;42.680;23.288;2022-09-09T03:17:23;9.67;;;8.50;;
10074;SDS011;5076;42.680;23.288;2022-09-09T03:20:50;8.90;;;7.97;;
10074;SDS011;5076;42.680;23.288;2022-09-09T03:24:15;8.77;;;7.87;;
10074;SDS011;5076;42.680;23.288;2022-09-09T03:27:40;9.63;;;8.43;;
10074;SDS011;5076;42.680;23.288;2022-09-09T03:31:05;10.33;;;8.50;;
10074;SDS011;5076;42.680;23.288;2022-09-09T03:34:31;12.93;;;8.97;;
10074;SDS011;5076;42.680;23.288;2022-09-09T03:37:58;13.40;;;8.73;;
10074;SDS011;5076;42.680;23.288;2022-09-09T03:41:24;12.23;;;8.50;;
10074;SDS011;5076;42.680;23.288;2022-09-09T03:44:50;10.97;;;8.50;;
10074;SDS011;5076;42.680;23.288;2022-09-09T03:48:15;14.20;;;8.90;;
10074;SDS011;5076;42.680;23.288;2022-09-09T03:51:41;9.70;;;8.37;;
10074;SDS011;5076;42.680;23.288;2022-09-09T03:55:08;9.17;;;8.27;;
10074;SDS011;5076;42.680;23.288;2022-09-09T03:58:34;12.27;;;9.23;;
10074;SDS011;5076;42.680;23.288;2022-09-09T04:02:00;9.70;;;8.70;;
10074;SDS011;5076;42.680;23.288;2022-09-09T04:05:25;14.10;;;9.40;;
10074;SDS011;5076;42.680;23.288;2022-09-09T04:08:51;14.63;;;9.00;;
10074;SDS011;5076;42.680;23.288;2022-09-09T04:12:17;13.80;;;9.10;;
10074;SDS011;5076;42.680;23.288;2022-09-09T04:15:44;15.37;;;9.57;;
10074;SDS011;5076;42.680;23.288;2022-09-09T04:19:15;9.93;;;9.03;;
10074;SDS011;5076;42.680;23.288;2022-09-09T04:22:40;11.93;;;9.30;;
10074;SDS011;5076;42.680;23.288;2022-09-09T04:26:05;17.03;;;9.10;;
10074;SDS011;5076;42.680;23.288;2022-09-09T04:29:32;15.27;;;9.70;;
10074;SDS011;5076;42.680;23.288;2022-09-09T04:32:57;16.70;;;10.63;;
10074;SDS011;5076;42.680;23.288;2022-09-09T04:36:22;9.40;;;8.17;;
10074;SDS011;5076;42.680;23.288;2022-09-09T04:39:50;16.37;;;10.17;;
10074;SDS011;5076;42.680;23.288;2022-09-09T04:43:16;9.53;;;8.63;;
10074;SDS011;5076;42.680;23.288;2022-09-09T04:46:43;15.80;;;10.30;;
10074;SDS011;5076;42.680;23.288;2022-09-09T04:50:09;11.80;;;8.87;;
10074;SDS011;5076;42.680;23.288;2022-09-09T04:53:37;18.47;;;10.63;;
10074;SDS011;5076;42.680;23.288;2022-09-09T04:57:02;18.43;;;9.07;;
10074;SDS011;5076;42.680;23.288;2022-09-09T05:00:30;19.93;;;11.77;;
10074;SDS011;5076;42.680;23.288;2022-09-09T05:03:56;13.13;;;9.80;;
10074;SDS011;5076;42.680;23.288;2022-09-09T05:07:22;14.73;;;10.07;;
10074;SDS011;5076;42.680;23.288;2022-09-09T05:10:56;19.60;;;10.40;;
10074;SDS011;5076;42.680;23.288;2022-09-09T05:14:21;19.57;;;9.50;;
10074;SDS011;5076;42.680;23.288;2022-09-09T05:17:46;13.27;;;9.60;;
10074;SDS011;5076;42.680;23.288;2022-09-09T05:21:14;10.30;;;9.23;;
10074;SDS011;5076;42.680;23.288;2022-09-09T05:24:48;15.83;;;10.00;;
10074;SDS011;5076;42.680;23.288;2022-09-09T05:28:22;14.13;;;9.57;;
10074;SDS011;5076;42.680;23.288;2022-09-09T05:31:47;11.27;;;10.07;;
10074;SDS011;5076;42.680;23.288;2022-09-09T05:35:13;10.17;;;8.80;;
10074;SDS011;5076;42.680;23.288;2022-09-09T05:38:40;27.77;;;12.10;;
10074;SDS011;5076;42.680;23.288;2022-09-09T05:42:06;13.80;;;9.60;;
10074;SDS011;5076;42.680;23.288;2022-09-09T05:45:31;11.37;;;8.97;;
10074;SDS011;5076;42.680;23.288;2022-09-09T05:48:57;9.90;;;9.00;;
10074;SDS011;5076;42.680;23.288;2022-09-09T05:52:22;11.27;;;9.23;;
10074;SDS011;5076;42.680;23.288;2022-09-09T05:55:49;13.20;;;9.50;;
10074;SDS011;5076;42.680;23.288;2022-09-09T05:59:17;10.57;;;9.57;;
10074;SDS011;5076;42.680;23.288;2022-09-09T06:02:43;11.13;;;10.03;;
10074;SDS011;5076;42.680;23.288;2022-09-09T06:06:09;12.50;;;10.20;;
10074;SDS011;5076;42.680;23.288;2022-09-09T06:09:35;12.80;;;9.30;;
10074;SDS011;5076;42.680;23.288;2022-09-09T06:13:02;10.00;;;9.00;;
10074;SDS011;5076;42.680;23.288;2022-09-09T06:16:29;9.47;;;8.40;;
10074;SDS011;5076;42.680;23.288;2022-09-09T06:18:57;10.83;;;9.60;;
10074;SDS011;5076;42.680;23.288;2022-09-09T06:21:25;14.37;;;10.23;;
10074;SDS011;5076;42.680;23.288;2022-09-09T06:23:53;9.93;;;9.00;;
10074;SDS011;5076;42.680;23.288;2022-09-09T06:26:20;10.13;;;8.63;;
10074;SDS011;5076;42.680;23.288;2022-09-09T06:28:50;9.77;;;8.87;;
10074;SDS011;5076;42.680;23.288;2022-09-09T06:31:19;9.83;;;8.93;;
10074;SDS011;5076;42.680;23.288;2022-09-09T06:33:48;10.17;;;8.80;;
10074;SDS011;5076;42.680;23.288;2022-09-09T06:36:16;10.77;;;9.40;;
10074;SDS011;5076;42.680;23.288;2022-09-09T06:38:45;10.00;;;9.03;;
10074;SDS011;5076;42.680;23.288;2022-09-09T06:41:13;16.07;;;9.20;;
10074;SDS011;5076;42.680;23.288;2022-09-09T06:43:41;11.50;;;8.33;;
10074;SDS011;5076;42.680;23.288;2022-09-09T06:46:10;12.03;;;9.30;;
10074;SDS011;5076;42.680;23.288;2022-09-09T06:48:39;9.87;;;8.87;;
10074;SDS011;5076;42.680;23.288;2022-09-09T06:52:04;11.33;;;9.10;;
10074;SDS011;5076;42.680;23.288;2022-09-09T06:55:15;9.40;;;8.50;;
10074;SDS011;5076;42.680;23.288;2022-09-09T06:58:44;11.00;;;8.67;;
10074;SDS011;5076;42.680;23.288;2022-09-09T07:01:14;13.67;;;9.07;;
10074;SDS011;5076;42.680;23.288;2022-09-09T07:03:44;10.37;;;8.30;;
10074;SDS011;5076;42.680;23.288;2022-09-09T07:06:13;9.57;;;8.30;;
10074;SDS011;5076;42.680;23.288;2022-09-09T07:08:42;11.03;;;8.20;;
10074;SDS011;5076;42.680;23.288;2022-09-09T07:11:38;10.83;;;8.77;;
10074;SDS011;5076;42.680;23.288;2022-09-09T07:15:03;19.07;;;9.47;;
10074;SDS011;5076;42.680;23.288;2022-09-09T07:18:31;9.43;;;8.00;;
10074;SDS011;5076;42.680;23.288;2022-09-09T07:21:56;10.23;;;7.97;;
10074;SDS011;5076;42.680;23.288;2022-09-09T07:25:23;11.67;;;8.30;;
10074;SDS011;5076;42.680;23.288;2022-09-09T07:28:50;9.17;;;7.53;;
10074;SDS011;5076;42.680;23.288;2022-09-09T07:32:15;9.10;;;8.20;;
10074;SDS011;5076;42.680;23.288;2022-09-09T07:35:51;13.37;;;9.63;;
10074;SDS011;5076;42.680;23.288;2022-09-09T07:39:17;11.87;;;8.47;;
10074;SDS011;5076;42.680;23.288;2022-09-09T07:42:42;11.60;;;8.17;;
10074;SDS011;5076;42.680;23.288;2022-09-09T07:46:09;12.37;;;7.70;;
10074;SDS011;5076;42.680;23.288;2022-09-09T07:49:34;8.90;;;7.10;;
10074;SDS011;5076;42.680;23.288;2022-09-09T07:53:01;7.43;;;6.20;;
10074;SDS011;5076;42.680;23.288;2022-09-09T07:56:28;8.30;;;6.30;;
10074;SDS011;5076;42.680;23.288;2022-09-09T07:59:55;8.20;;;6.40;;
10074;SDS011;5076;42.680;23.288;2022-09-09T08:03:20;6.67;;;4.63;;
10074;SDS011;5076;42.680;23.288;2022-09-09T08:06:47;5.80;;;5.20;;
10074;SDS011;5076;42.680;23.288;2022-09-09T08:10:14;6.43;;;4.63;;
10074;SDS011;5076;42.680;23.288;2022-09-09T08:13:41;5.47;;;4.63;;
10074;SDS011;5076;42.680;23.288;2022-09-09T08:17:06;6.03;;;4.93;;
10074;SDS011;5076;42.680;23.288;2022-09-09T08:20:32;6.23;;;4.97;;
10074;SDS011;5076;42.680;23.288;2022-09-09T08:23:59;9.23;;;5.30;;
10074;SDS011;5076;42.680;23.288;2022-09-09T08:27:26;9.03;;;7.17;;
10074;SDS011;5076;42.680;23.288;2022-09-09T08:30:52;5.90;;;5.30;;
10074;SDS011;5076;42.680;23.288;2022-09-09T08:34:19;5.23;;;4.73;;
10074;SDS011;5076;42.680;23.288;2022-09-09T08:37:45;6.00;;;5.03;;
10074;SDS011;5076;42.680;23.288;2022-09-09T08:41:23;7.07;;;4.93;;
10074;SDS011;5076;42.680;23.288;2022-09-09T08:48:52;9.53;;;5.10;;
10074;SDS011;5076;42.680;23.288;2022-09-09T08:52:29;9.67;;;8.17;;
10074;SDS011;5076;42.680;23.288;2022-09-09T08:55:59;7.03;;;4.93;;
10074;SDS011;5076;42.680;23.288;2022-09-09T08:59:27;5.73;;;4.87;;
10074;SDS011;5076;42.680;23.288;2022-09-09T09:03:00;5.72;;;4.65;;
10074;SDS011;5076;42.680;23.288;2022-09-09T09:06:38;12.03;;;5.40;;
10074;SDS011;5076;42.680;23.288;2022-09-09T09:10:16;6.83;;;5.23;;
10074;SDS011;5076;42.680;23.288;2022-09-09T09:13:45;8.37;;;5.23;;
10074;SDS011;5076;42.680;23.288;2022-09-09T09:17:14;4.77;;;4.27;;
10074;SDS011;5076;42.680;23.288;2022-09-09T09:20:46;7.07;;;4.13;;
10074;SDS011;5076;42.680;23.288;2022-09-09T09:24:18;5.22;;;4.20;;
10074;SDS011;5076;42.680;23.288;2022-09-09T09:27:47;6.97;;;4.05;;
10074;SDS011;5076;42.680;23.288;2022-09-09T09:31:19;11.80;;;4.78;;
10074;SDS011;5076;42.680;23.288;2022-09-09T09:34:48;6.80;;;4.63;;
10074;SDS011;5076;42.680;23.288;2022-09-09T09:38:16;12.77;;;5.45;;
10074;SDS011;5076;42.680;23.288;2022-09-09T09:41:48;11.35;;;4.75;;
10074;SDS011;5076;42.680;23.288;2022-09-09T09:45:16;4.40;;;3.90;;
10074;SDS011;5076;42.680;23.288;2022-09-09T09:48:56;6.28;;;4.68;;
10074;SDS011;5076;42.680;23.288;2022-09-09T09:52:24;6.38;;;4.00;;
10074;SDS011;5076;42.680;23.288;2022-09-09T09:55:53;8.45;;;4.93;;
10074;SDS011;5076;42.680;23.288;2022-09-09T09:59:20;12.18;;;5.10;;
10074;SDS011;5076;42.680;23.288;2022-09-09T10:02:48;8.98;;;3.90;;
10074;SDS011;5076;42.680;23.288;2022-09-09T10:06:16;5.38;;;3.60;;
10074;SDS011;5076;42.680;23.288;2022-09-09T10:09:45;9.85;;;4.40;;
10074;SDS011;5076;42.680;23.288;2022-09-09T10:13:17;6.50;;;4.57;;
10074;SDS011;5076;42.680;23.288;2022-09-09T10:16:55;5.00;;;4.50;;
10074;SDS011;5076;42.680;23.288;2022-09-09T10:20:32;7.38;;;5.05;;
10074;SDS011;5076;42.680;23.288;2022-09-09T10:24:31;8.50;;;4.60;;
10074;SDS011;5076;42.680;23.288;2022-09-09T10:28:17;8.20;;;4.78;;
10074;SDS011;5076;42.680;23.288;2022-09-09T10:32:06;5.27;;;4.33;;
10074;SDS011;5076;42.680;23.288;2022-09-09T10:35:44;7.17;;;4.20;;
10074;SDS011;5076;42.680;23.288;2022-09-09T10:39:17;5.55;;;4.35;;
10074;SDS011;5076;42.680;23.288;2022-09-09T10:42:59;4.90;;;4.30;;
10074;SDS011;5076;42.680;23.288;2022-09-09T10:46:43;5.25;;;4.35;;
10074;SDS011;5076;42.680;23.288;2022-09-09T10:50:33;7.20;;;4.90;;
10074;SDS011;5076;42.680;23.288;2022-09-09T10:54:11;9.43;;;5.40;;
10074;SDS011;5076;42.680;23.288;2022-09-09T10:57:43;5.70;;;5.10;;
10074;SDS011;5076;42.680;23.288;2022-09-09T11:01:15;9.80;;;5.97;;
10074;SDS011;5076;42.680;23.288;2022-09-09T11:04:45;9.43;;;6.30;;
10074;SDS011;5076;42.680;23.288;2022-09-09T11:08:18;9.43;;;5.33;;
10074;SDS011;5076;42.680;23.288;2022-09-09T11:11:49;9.87;;;5.60;;
10074;SDS011;5076;42.680;23.288;2022-09-09T11:15:20;7.37;;;5.27;;
10074;SDS011;5076;42.680;23.288;2022-09-09T11:18:50;5.90;;;5.27;;
10074;SDS011;5076;42.680;23.288;2022-09-09T11:22:21;5.20;;;4.70;;
10074;SDS011;5076;42.680;23.288;2022-09-09T11:25:53;11.70;;;5.67;;
10074;SDS011;5076;42.680;23.288;2022-09-09T11:29:31;6.90;;;5.07;;
10074;SDS011;5076;42.680;23.288;2022-09-09T11:33:19;8.33;;;5.53;;
10074;SDS011;5076;42.680;23.288;2022-09-09T11:37:07;5.80;;;4.93;;
10074;SDS011;5076;42.680;23.288;2022-09-09T11:40:43;8.55;;;4.80;;
10074;SDS011;5076;42.680;23.288;2022-09-09T11:44:09;8.80;;;5.10;;
10074;SDS011;5076;42.680;23.288;2022-09-09T11:47:38;12.20;;;5.80;;
10074;SDS011;5076;42.680;23.288;2022-09-09T11:51:05;7.65;;;5.60;;
10074;SDS011;5076;42.680;23.288;2022-09-09T11:54:44;7.57;;;5.30;;
10074;SDS011;5076;42.680;23.288;2022-09-09T11:58:15;10.43;;;5.38;;
10074;SDS011;5076;42.680;23.288;2022-09-09T12:01:49;9.18;;;5.70;;
10074;SDS011;5076;42.680;23.288;2022-09-09T12:05:16;7.70;;;5.13;;
10074;SDS011;5076;42.680;23.288;2022-09-09T12:08:43;8.20;;;5.90;;
10074;SDS011;5076;42.680;23.288;2022-09-09T12:12:25;5.43;;;4.93;;
10074;SDS011;5076;42.680;23.288;2022-09-09T12:15:53;7.38;;;5.25;;
10074;SDS011;5076;42.680;23.288;2022-09-09T12:19:20;6.80;;;5.28;;
10074;SDS011;5076;42.680;23.288;2022-09-09T12:26:36;11.00;;;6.43;;
10074;SDS011;5076;42.680;23.288;2022-09-09T12:30:09;8.77;;;6.40;;
10074;SDS011;5076;42.680;23.288;2022-09-09T12:33:42;12.52;;;6.78;;
10074;SDS011;5076;42.680;23.288;2022-09-09T12:37:15;10.43;;;5.57;;
10074;SDS011;5076;42.680;23.288;2022-09-09T12:40:54;8.30;;;5.53;;
10074;SDS011;5076;42.680;23.288;2022-09-09T12:44:22;9.50;;;5.30;;
10074;SDS011;5076;42.680;23.288;2022-09-09T12:47:50;10.27;;;4.80;;
10074;SDS011;5076;42.680;23.288;2022-09-09T12:51:19;10.32;;;4.63;;
10074;SDS011;5076;42.680;23.288;2022-09-09T12:54:49;10.32;;;4.05;;
10074;SDS011;5076;42.680;23.288;2022-09-09T12:58:18;10.65;;;4.15;;
10074;SDS011;5076;42.680;23.288;2022-09-09T13:01:54;9.27;;;4.28;;
10074;SDS011;5076;42.680;23.288;2022-09-09T13:05:22;5.50;;;4.18;;
10074;SDS011;5076;42.680;23.288;2022-09-09T13:08:49;8.25;;;3.97;;
10074;SDS011;5076;42.680;23.288;2022-09-09T13:12:16;8.23;;;4.45;;
10074;SDS011;5076;42.680;23.288;2022-09-09T13:15:50;5.32;;;3.90;;
10074;SDS011;5076;42.680;23.288;2022-09-09T13:19:22;7.30;;;4.25;;
10074;SDS011;5076;42.680;23.288;2022-09-09T13:22:50;5.77;;;4.47;;
10074;SDS011;5076;42.680;23.288;2022-09-09T13:26:20;8.95;;;4.18;;
10074;SDS011;5076;42.680;23.288;2022-09-09T13:29:52;11.27;;;7.10;;
10074;SDS011;5076;42.680;23.288;2022-09-09T13:33:28;12.98;;;6.38;;
10074;SDS011;5076;42.680;23.288;2022-09-09T13:36:56;17.92;;;6.20;;
10074;SDS011;5076;42.680;23.288;2022-09-09T13:40:23;7.63;;;5.38;;
10074;SDS011;5076;42.680;23.288;2022-09-09T13:43:50;5.25;;;4.60;;
10074;SDS011;5076;42.680;23.288;2022-09-09T13:47:20;8.25;;;5.53;;
10074;SDS011;5076;42.680;23.288;2022-09-09T13:50:53;9.13;;;5.18;;
10074;SDS011;5076;42.680;23.288;2022-09-09T13:54:29;7.63;;;4.57;;
10074;SDS011;5076;42.680;23.288;2022-09-09T13:57:55;9.05;;;5.57;;
10074;SDS011;5076;42.680;23.288;2022-09-09T14:01:23;8.82;;;6.40;;
10074;SDS011;5076;42.680;23.288;2022-09-09T14:04:50;12.85;;;6.53;;
10074;SDS011;5076;42.680;23.288;2022-09-09T14:08:19;12.90;;;5.65;;
10074;SDS011;5076;42.680;23.288;2022-09-09T14:11:45;10.43;;;4.38;;
10074;SDS011;5076;42.680;23.288;2022-09-09T14:15:11;6.95;;;4.22;;
10074;SDS011;5076;42.680;23.288;2022-09-09T14:18:38;13.10;;;4.40;;
10074;SDS011;5076;42.680;23.288;2022-09-09T14:22:04;12.98;;;4.95;;
10074;SDS011;5076;42.680;23.288;2022-09-09T14:25:29;9.57;;;4.47;;
10074;SDS011;5076;42.680;23.288;2022-09-09T14:28:55;8.27;;;5.43;;
10074;SDS011;5076;42.680;23.288;2022-09-09T14:32:20;12.73;;;5.90;;
10074;SDS011;5076;42.680;23.288;2022-09-09T14:35:47;10.73;;;5.88;;
10074;SDS011;5076;42.680;23.288;2022-09-09T14:39:12;6.40;;;4.88;;
10074;SDS011;5076;42.680;23.288;2022-09-09T14:42:40;8.77;;;5.43;;
10074;SDS011;5076;42.680;23.288;2022-09-09T14:46:05;9.18;;;5.05;;
10074;SDS011;5076;42.680;23.288;2022-09-09T14:49:31;11.95;;;5.72;;
10074;SDS011;5076;42.680;23.288;2022-09-09T14:52:57;10.77;;;5.70;;
10074;SDS011;5076;42.680;23.288;2022-09-09T14:56:25;13.13;;;6.28;;
10074;SDS011;5076;42.680;23.288;2022-09-09T14:59:50;7.45;;;4.70;;
10074;SDS011;5076;42.680;23.288;2022-09-09T15:03:15;13.13;;;6.30;;
10074;SDS011;5076;42.680;23.288;2022-09-09T15:06:41;10.05;;;5.55;;
10074;SDS011;5076;42.680;23.288;2022-09-09T15:10:09;31.65;;;7.35;;
10074;SDS011;5076;42.680;23.288;2022-09-09T15:13:35;21.80;;;7.70;;
10074;SDS011;5076;42.680;23.288;2022-09-09T15:17:01;10.55;;;5.47;;
10074;SDS011;5076;42.680;23.288;2022-09-09T15:20:26;14.77;;;9.70;;
10074;SDS011;5076;42.680;23.288;2022-09-09T15:23:56;14.60;;;8.70;;
10074;SDS011;5076;42.680;23.288;2022-09-09T15:27:23;20.20;;;7.53;;
10074;SDS011;5076;42.680;23.288;2022-09-09T15:30:48;10.10;;;5.20;;
10074;SDS011;5076;42.680;23.288;2022-09-09T15:34:13;12.30;;;6.18;;
10074;SDS011;5076;42.680;23.288;2022-09-09T15:37:39;18.08;;;6.65;;
10074;SDS011;5076;42.680;23.288;2022-09-09T15:41:04;13.65;;;7.10;;
10074;SDS011;5076;42.680;23.288;2022-09-09T15:44:31;10.70;;;6.18;;
10074;SDS011;5076;42.680;23.288;2022-09-09T15:48:03;11.55;;;5.70;;
10074;SDS011;5076;42.680;23.288;2022-09-09T15:51:30;10.95;;;6.82;;
10074;SDS011;5076;42.680;23.288;2022-09-09T15:54:55;10.07;;;6.07;;
10074;SDS011;5076;42.680;23.288;2022-09-09T15:58:21;13.63;;;7.28;;
10074;SDS011;5076;42.680;23.288;2022-09-09T16:01:49;17.17;;;7.93;;
10074;SDS011;5076;42.680;23.288;2022-09-09T16:05:14;12.82;;;8.20;;
10074;SDS011;5076;42.680;23.288;2022-09-09T16:08:41;17.40;;;8.07;;
10074;SDS011;5076;42.680;23.288;2022-09-09T16:12:08;19.73;;;7.55;;
10074;SDS011;5076;42.680;23.288;2022-09-09T16:15:34;14.20;;;8.07;;
10074;SDS011;5076;42.680;23.288;2022-09-09T16:19:02;15.48;;;7.75;;
10074;SDS011;5076;42.680;23.288;2022-09-09T16:22:30;20.73;;;8.32;;
10074;SDS011;5076;42.680;23.288;2022-09-09T16:25:55;22.80;;;8.10;;
10074;SDS011;5076;42.680;23.288;2022-09-09T16:29:21;17.95;;;7.40;;
10074;SDS011;5076;42.680;23.288;2022-09-09T16:32:47;9.30;;;6.27;;
10074;SDS011;5076;42.680;23.288;2022-09-09T16:36:15;14.77;;;7.10;;
10074;SDS011;5076;42.680;23.288;2022-09-09T16:39:40;10.93;;;6.30;;
10074;SDS011;5076;42.680;23.288;2022-09-09T16:43:06;14.07;;;8.10;;
10074;SDS011;5076;42.680;23.288;2022-09-09T16:46:33;17.50;;;8.53;;
10074;SDS011;5076;42.680;23.288;2022-09-09T16:49:59;21.90;;;8.97;;
10074;SDS011;5076;42.680;23.288;2022-09-09T16:53:30;16.93;;;8.60;;
10074;SDS011;5076;42.680;23.288;2022-09-09T16:56:56;10.47;;;6.97;;
10074;SDS011;5076;42.680;23.288;2022-09-09T17:00:22;12.17;;;7.50;;
10074;SDS011;5076;42.680;23.288;2022-09-09T17:03:51;15.23;;;8.47;;
10074;SDS011;5076;42.680;23.288;2022-09-09T17:07:17;14.23;;;8.10;;
10074;SDS011;5076;42.680;23.288;2022-09-09T17:10:43;18.97;;;9.60;;
10074;SDS011;5076;42.680;23.288;2022-09-09T17:14:10;15.60;;;9.80;;
10074;SDS011;5076;42.680;23.288;2022-09-09T17:17:36;17.50;;;9.77;;
10074;SDS011;5076;42.680;23.288;2022-09-09T17:21:02;21.60;;;9.23;;
10074;SDS011;5076;42.680;23.288;2022-09-09T17:24:27;12.93;;;9.40;;
10074;SDS011;5076;42.680;23.288;2022-09-09T17:27:54;9.07;;;7.40;;
10074;SDS011;5076;42.680;23.288;2022-09-09T17:31:21;12.33;;;8.27;;
10074;SDS011;5076;42.680;23.288;2022-09-09T17:34:46;15.13;;;8.20;;
10074;SDS011;5076;42.680;23.288;2022-09-09T17:38:13;14.50;;;7.73;;
10074;SDS011;5076;42.680;23.288;2022-09-09T17:41:39;14.93;;;8.47;;
10074;SDS011;5076;42.680;23.288;2022-09-09T17:45:07;14.07;;;8.07;;
10074;SDS011;5076;42.680;23.288;2022-09-09T17:48:33;13.40;;;7.77;;
10074;SDS011;5076;42.680;23.288;2022-09-09T17:51:58;17.03;;;10.10;;
10074;SDS011;5076;42.680;23.288;2022-09-09T17:55:24;16.70;;;10.33;;
10074;SDS011;5076;42.680;23.288;2022-09-09T17:58:50;21.20;;;10.47;;
10074;SDS011;5076;42.680;23.288;2022-09-09T18:02:17;16.73;;;10.37;;
10074;SDS011;5076;42.680;23.288;2022-09-09T18:05:42;18.53;;;11.13;;
10074;SDS011;5076;42.680;23.288;2022-09-09T18:09:10;19.90;;;11.40;;
10074;SDS011;5076;42.680;23.288;2022-09-09T18:12:36;14.07;;;10.13;;
10074;SDS011;5076;42.680;23.288;2022-09-09T18:16:05;17.80;;;9.73;;
10074;SDS011;5076;42.680;23.288;2022-09-09T18:19:32;10.23;;;8.13;;
10074;SDS011;5076;42.680;23.288;2022-09-09T18:22:57;10.43;;;7.80;;
10074;SDS011;5076;42.680;23.288;2022-09-09T18:26:24;10.97;;;8.17;;
10074;SDS011;5076;42.680;23.288;2022-09-09T18:29:50;11.30;;;8.47;;
10074;SDS011;5076;42.680;23.288;2022-09-09T18:33:15;9.80;;;7.13;;
10074;SDS011;5076;42.680;23.288;2022-09-09T18:36:45;11.70;;;7.37;;
10074;SDS011;5076;42.680;23.288;2022-09-09T18:40:12;13.27;;;7.20;;
10074;SDS011;5076;42.680;23.288;2022-09-09T18:43:43;9.10;;;6.47;;
10074;SDS011;5076;42.680;23.288;2022-09-09T18:47:09;9.47;;;6.50;;
10074;SDS011;5076;42.680;23.288;2022-09-09T18:50:34;10.33;;;6.07;;
10074;SDS011;5076;42.680;23.288;2022-09-09T18:54:03;12.50;;;6.67;;
10074;SDS011;5076;42.680;23.288;2022-09-09T18:57:29;11.97;;;7.30;;
10074;SDS011;5076;42.680;23.288;2022-09-09T19:00:54;10.00;;;7.27;;
10074;SDS011;5076;42.680;23.288;2022-09-09T19:04:20;10.63;;;6.73;;
10074;SDS011;5076;42.680;23.288;2022-09-09T19:07:46;13.10;;;7.30;;
10074;SDS011;5076;42.680;23.288;2022-09-09T19:11:14;11.80;;;6.40;;
10074;SDS011;5076;42.680;23.288;2022-09-09T19:14:41;10.70;;;6.33;;
10074;SDS011;5076;42.680;23.288;2022-09-09T19:18:07;15.40;;;8.23;;
10074;SDS011;5076;42.680;23.288;2022-09-09T19:21:34;10.40;;;6.70;;
10074;SDS011;5076;42.680;23.288;2022-09-09T19:25:00;10.57;;;5.93;;
10074;SDS011;5076;42.680;23.288;2022-09-09T19:28:28;10.63;;;6.50;;
10074;SDS011;5076;42.680;23.288;2022-09-09T19:31:55;8.93;;;6.30;;
10074;SDS011;5076;42.680;23.288;2022-09-09T19:35:20;11.23;;;6.70;;
10074;SDS011;5076;42.680;23.288;2022-09-09T19:38:46;12.23;;;6.50;;
10074;SDS011;5076;42.680;23.288;2022-09-09T19:42:12;9.23;;;6.27;;
10074;SDS011;5076;42.680;23.288;2022-09-09T19:45:40;9.53;;;5.60;;
10074;SDS011;5076;42.680;23.288;2022-09-09T19:49:06;12.17;;;6.47;;
10074;SDS011;5076;42.680;23.288;2022-09-09T19:52:32;7.80;;;5.73;;
10074;SDS011;5076;42.680;23.288;2022-09-09T19:55:58;8.30;;;5.63;;
10074;SDS011;5076;42.680;23.288;2022-09-09T19:59:24;9.57;;;5.17;;
10074;SDS011;5076;42.680;23.288;2022-09-09T20:02:51;8.00;;;5.27;;
10074;SDS011;5076;42.680;23.288;2022-09-09T20:06:19;8.47;;;6.03;;
10074;SDS011;5076;42.680;23.288;2022-09-09T20:09:45;6.07;;;5.10;;
10074;SDS011;5076;42.680;23.288;2022-09-09T20:13:17;6.17;;;4.90;;
10074;SDS011;5076;42.680;23.288;2022-09-09T20:16:43;11.67;;;6.00;;
10074;SDS011;5076;42.680;23.288;2022-09-09T20:20:10;8.90;;;5.83;;
10074;SDS011;5076;42.680;23.288;2022-09-09T20:23:36;10.37;;;9.37;;
10074;SDS011;5076;42.680;23.288;2022-09-09T20:27:02;9.00;;;5.23;;
10074;SDS011;5076;42.680;23.288;2022-09-09T20:30:27;9.17;;;5.97;;
10074;SDS011;5076;42.680;23.288;2022-09-09T20:33:54;10.93;;;6.80;;
10074;SDS011;5076;42.680;23.288;2022-09-09T20:37:21;6.60;;;5.87;;
10074;SDS011;5076;42.680;23.288;2022-09-09T20:40:51;13.37;;;8.63;;
10074;SDS011;5076;42.680;23.288;2022-09-09T20:44:18;13.73;;;9.07;;